sensor_id;sensor_type;location;lat;lon;timestamp;temperature;humidity
13462;DHT22;6803;45.264;5.468;2023-03-01T00:01:29;2.20;99.90
13462;DHT22;6803;45.264;5.468;2023-03-01T00:06:40;2.30;99.90
13462;DHT22;6803;45.264;5.468;2023-03-01T00:09:15;2.30;99.90
13462;DHT22;6803;45.264;5.468;2023-03-01T00:11:46;2.30;99.90
13462;DHT22;6803;45.264;5.468;2023-03-01T00:14:17;2.30;99.90
13462;DHT22;6803;45.264;5.468;2023-03-01T00:16:48;2.20;99.90
13462;DHT22;6803;45.264;5.468;2023-03-01T00:19:20;2.30;99.90
13462;DHT22;6803;45.264;5.468;2023-03-01T00:21:52;2.20;99.90
13462;DHT22;6803;45.264;5.468;2023-03-01T00:24:23;2.20;99.90
13462;DHT22;6803;45.264;5.468;2023-03-01T00:27:30;2.20;99.90
13462;DHT22;6803;45.264;5.468;2023-03-01T00:30:01;2.30;99.90
13462;DHT22;6803;45.264;5.468;2023-03-01T00:32:32;2.30;99.90
13462;DHT22;6803;45.264;5.468;2023-03-01T00:35:03;2.30;99.90
13462;DHT22;6803;45.264;5.468;2023-03-01T00:37:35;2.30;99.90
13462;DHT22;6803;45.264;5.468;2023-03-01T00:40:08;2.20;99.90
13462;DHT22;6803;45.264;5.468;2023-03-01T00:45:18;2.20;99.90
13462;DHT22;6803;45.264;5.468;2023-03-01T00:47:50;2.20;99.90
13462;DHT22;6803;45.264;5.468;2023-03-01T00:50:21;2.20;99.90
13462;DHT22;6803;45.264;5.468;2023-03-01T00:52:54;2.20;99.90
13462;DHT22;6803;45.264;5.468;2023-03-01T00:55:26;2.20;99.90
13462;DHT22;6803;45.264;5.468;2023-03-01T00:57:57;2.20;99.90
13462;DHT22;6803;45.264;5.468;2023-03-01T01:00:28;2.20;99.90
13462;DHT22;6803;45.264;5.468;2023-03-01T01:03:06;2.20;99.90
13462;DHT22;6803;45.264;5.468;2023-03-01T01:05:38;2.20;99.90
13462;DHT22;6803;45.264;5.468;2023-03-01T01:08:09;2.20;99.90
13462;DHT22;6803;45.264;5.468;2023-03-01T01:10:40;2.20;99.90
13462;DHT22;6803;45.264;5.468;2023-03-01T01:13:11;2.10;99.90
13462;DHT22;6803;45.264;5.468;2023-03-01T01:15:43;2.10;99.90
13462;DHT22;6803;45.264;5.468;2023-03-01T01:18:14;2.10;99.90
13462;DHT22;6803;45.264;5.468;2023-03-01T01:20:45;2.20;99.90
13462;DHT22;6803;45.264;5.468;2023-03-01T01:23:16;2.20;99.90
13462;DHT22;6803;45.264;5.468;2023-03-01T01:25:47;2.10;99.90
13462;DHT22;6803;45.264;5.468;2023-03-01T01:28:18;2.20;99.90
13462;DHT22;6803;45.264;5.468;2023-03-01T01:30:49;2.10;99.90
13462;DHT22;6803;45.264;5.468;2023-03-01T01:33:20;2.20;99.90
13462;DHT22;6803;45.264;5.468;2023-03-01T01:35:52;2.10;99.90
13462;DHT22;6803;45.264;5.468;2023-03-01T01:38:24;2.20;99.90
13462;DHT22;6803;45.264;5.468;2023-03-01T01:40:54;2.10;99.90
13462;DHT22;6803;45.264;5.468;2023-03-01T01:43:28;2.10;99.90
13462;DHT22;6803;45.264;5.468;2023-03-01T01:46:01;2.10;99.90
13462;DHT22;6803;45.264;5.468;2023-03-01T01:48:38;2.10;99.90
13462;DHT22;6803;45.264;5.468;2023-03-01T01:51:21;2.10;99.90
13462;DHT22;6803;45.264;5.468;2023-03-01T01:54:11;2.10;99.90
13462;DHT22;6803;45.264;5.468;2023-03-01T01:56:46;2.10;99.90
13462;DHT22;6803;45.264;5.468;2023-03-01T01:59:17;2.20;99.90
13462;DHT22;6803;45.264;5.468;2023-03-01T02:01:48;2.20;99.90
13462;DHT22;6803;45.264;5.468;2023-03-01T02:04:19;2.10;99.90
13462;DHT22;6803;45.264;5.468;2023-03-01T02:06:55;2.10;99.90
13462;DHT22;6803;45.264;5.468;2023-03-01T02:09:26;2.00;99.90
13462;DHT22;6803;45.264;5.468;2023-03-01T02:11:58;2.00;99.90
13462;DHT22;6803;45.264;5.468;2023-03-01T02:14:29;2.00;99.90
13462;DHT22;6803;45.264;5.468;2023-03-01T02:17:01;2.00;99.90
13462;DHT22;6803;45.264;5.468;2023-03-01T02:19:38;2.00;99.90
13462;DHT22;6803;45.264;5.468;2023-03-01T02:22:15;2.00;99.90
13462;DHT22;6803;45.264;5.468;2023-03-01T02:24:49;2.00;99.90
13462;DHT22;6803;45.264;5.468;2023-03-01T02:27:22;2.00;99.90
13462;DHT22;6803;45.264;5.468;2023-03-01T02:29:54;2.00;99.90
13462;DHT22;6803;45.264;5.468;2023-03-01T02:32:26;2.00;99.90
13462;DHT22;6803;45.264;5.468;2023-03-01T02:34:57;2.00;99.90
13462;DHT22;6803;45.264;5.468;2023-03-01T02:37:29;2.00;99.90
13462;DHT22;6803;45.264;5.468;2023-03-01T02:40:02;2.00;99.90
13462;DHT22;6803;45.264;5.468;2023-03-01T02:42:35;1.90;99.90
13462;DHT22;6803;45.264;5.468;2023-03-01T02:45:09;2.00;99.90
13462;DHT22;6803;45.264;5.468;2023-03-01T02:47:40;1.90;99.90
13462;DHT22;6803;45.264;5.468;2023-03-01T02:50:22;1.90;99.90
13462;DHT22;6803;45.264;5.468;2023-03-01T02:52:57;1.90;99.90
13462;DHT22;6803;45.264;5.468;2023-03-01T02:55:29;2.00;99.90
13462;DHT22;6803;45.264;5.468;2023-03-01T02:58:02;1.90;99.90
13462;DHT22;6803;45.264;5.468;2023-03-01T03:00:36;1.90;99.90
13462;DHT22;6803;45.264;5.468;2023-03-01T03:03:09;1.90;99.90
13462;DHT22;6803;45.264;5.468;2023-03-01T03:05:41;1.90;99.90
13462;DHT22;6803;45.264;5.468;2023-03-01T03:08:12;1.90;99.90
13462;DHT22;6803;45.264;5.468;2023-03-01T03:10:46;1.90;99.90
13462;DHT22;6803;45.264;5.468;2023-03-01T03:13:17;2.00;99.90
13462;DHT22;6803;45.264;5.468;2023-03-01T03:15:49;1.90;99.90
13462;DHT22;6803;45.264;5.468;2023-03-01T03:18:20;1.90;99.90
13462;DHT22;6803;45.264;5.468;2023-03-01T03:20:52;1.90;99.90
13462;DHT22;6803;45.264;5.468;2023-03-01T03:23:23;1.90;99.90
13462;DHT22;6803;45.264;5.468;2023-03-01T03:25:54;1.90;99.90
13462;DHT22;6803;45.264;5.468;2023-03-01T03:28:25;1.90;99.90
13462;DHT22;6803;45.264;5.468;2023-03-01T03:33:37;1.90;99.90
13462;DHT22;6803;45.264;5.468;2023-03-01T03:36:09;1.90;99.90
13462;DHT22;6803;45.264;5.468;2023-03-01T03:38:42;1.90;99.90
13462;DHT22;6803;45.264;5.468;2023-03-01T03:41:13;1.90;99.90
13462;DHT22;6803;45.264;5.468;2023-03-01T03:43:44;1.90;99.90
13462;DHT22;6803;45.264;5.468;2023-03-01T03:46:17;1.90;99.90
13462;DHT22;6803;45.264;5.468;2023-03-01T03:48:48;1.80;99.90
13462;DHT22;6803;45.264;5.468;2023-03-01T03:51:19;1.90;99.90
13462;DHT22;6803;45.264;5.468;2023-03-01T03:53:52;1.80;99.90
13462;DHT22;6803;45.264;5.468;2023-03-01T03:56:23;1.80;99.90
13462;DHT22;6803;45.264;5.468;2023-03-01T03:58:56;1.80;99.90
13462;DHT22;6803;45.264;5.468;2023-03-01T04:01:27;1.80;99.90
13462;DHT22;6803;45.264;5.468;2023-03-01T04:03:58;1.80;99.90
13462;DHT22;6803;45.264;5.468;2023-03-01T04:06:31;1.80;99.90
13462;DHT22;6803;45.264;5.468;2023-03-01T04:09:02;1.70;99.90
13462;DHT22;6803;45.264;5.468;2023-03-01T04:11:33;1.70;99.90
13462;DHT22;6803;45.264;5.468;2023-03-01T04:14:04;1.70;99.90
13462;DHT22;6803;45.264;5.468;2023-03-01T04:16:35;1.70;99.90
13462;DHT22;6803;45.264;5.468;2023-03-01T04:19:06;1.70;99.90
13462;DHT22;6803;45.264;5.468;2023-03-01T04:21:39;1.70;99.90
13462;DHT22;6803;45.264;5.468;2023-03-01T04:24:10;1.60;99.90
13462;DHT22;6803;45.264;5.468;2023-03-01T04:26:41;1.60;99.90
13462;DHT22;6803;45.264;5.468;2023-03-01T04:29:12;1.60;99.90
13462;DHT22;6803;45.264;5.468;2023-03-01T04:31:43;1.70;99.90
13462;DHT22;6803;45.264;5.468;2023-03-01T04:34:14;1.70;99.90
13462;DHT22;6803;45.264;5.468;2023-03-01T04:36:48;1.70;99.90
13462;DHT22;6803;45.264;5.468;2023-03-01T04:39:19;1.70;99.90
13462;DHT22;6803;45.264;5.468;2023-03-01T04:41:50;1.70;99.90
13462;DHT22;6803;45.264;5.468;2023-03-01T04:44:22;1.70;99.90
13462;DHT22;6803;45.264;5.468;2023-03-01T04:46:53;1.70;99.90
13462;DHT22;6803;45.264;5.468;2023-03-01T04:49:24;1.70;99.90
13462;DHT22;6803;45.264;5.468;2023-03-01T04:51:55;1.70;99.90
13462;DHT22;6803;45.264;5.468;2023-03-01T04:54:27;1.70;99.90
13462;DHT22;6803;45.264;5.468;2023-03-01T04:56:58;1.70;99.90
13462;DHT22;6803;45.264;5.468;2023-03-01T04:59:30;1.70;99.90
13462;DHT22;6803;45.264;5.468;2023-03-01T05:02:01;1.70;99.90
13462;DHT22;6803;45.264;5.468;2023-03-01T05:04:32;1.70;99.90
13462;DHT22;6803;45.264;5.468;2023-03-01T05:07:03;1.70;99.90
13462;DHT22;6803;45.264;5.468;2023-03-01T05:09:34;1.70;99.90
13462;DHT22;6803;45.264;5.468;2023-03-01T05:12:06;1.70;99.90
13462;DHT22;6803;45.264;5.468;2023-03-01T05:14:39;1.70;99.90
13462;DHT22;6803;45.264;5.468;2023-03-01T05:17:10;1.70;99.90
13462;DHT22;6803;45.264;5.468;2023-03-01T05:19:41;1.70;99.90
13462;DHT22;6803;45.264;5.468;2023-03-01T05:22:12;1.70;99.90
13462;DHT22;6803;45.264;5.468;2023-03-01T05:24:43;1.50;99.90
13462;DHT22;6803;45.264;5.468;2023-03-01T05:27:14;1.50;99.90
13462;DHT22;6803;45.264;5.468;2023-03-01T05:29:45;1.50;99.90
13462;DHT22;6803;45.264;5.468;2023-03-01T05:32:15;1.60;99.90
13462;DHT22;6803;45.264;5.468;2023-03-01T05:34:47;1.60;99.90
13462;DHT22;6803;45.264;5.468;2023-03-01T05:37:18;1.50;99.90
13462;DHT22;6803;45.264;5.468;2023-03-01T05:39:49;1.40;99.90
13462;DHT22;6803;45.264;5.468;2023-03-01T05:42:21;1.40;99.90
13462;DHT22;6803;45.264;5.468;2023-03-01T05:44:52;1.30;99.90
13462;DHT22;6803;45.264;5.468;2023-03-01T05:47:23;1.40;99.90
13462;DHT22;6803;45.264;5.468;2023-03-01T05:49:53;1.40;99.90
13462;DHT22;6803;45.264;5.468;2023-03-01T05:52:25;1.30;99.90
13462;DHT22;6803;45.264;5.468;2023-03-01T05:54:55;1.20;99.90
13462;DHT22;6803;45.264;5.468;2023-03-01T05:57:28;1.20;99.90
13462;DHT22;6803;45.264;5.468;2023-03-01T05:59:59;1.20;99.90
13462;DHT22;6803;45.264;5.468;2023-03-01T06:02:30;1.20;99.90
13462;DHT22;6803;45.264;5.468;2023-03-01T06:05:01;1.10;99.90
13462;DHT22;6803;45.264;5.468;2023-03-01T06:07:33;1.10;99.90
13462;DHT22;6803;45.264;5.468;2023-03-01T06:10:06;1.20;99.90
13462;DHT22;6803;45.264;5.468;2023-03-01T06:12:38;1.20;99.90
13462;DHT22;6803;45.264;5.468;2023-03-01T06:15:12;1.20;99.90
13462;DHT22;6803;45.264;5.468;2023-03-01T06:17:45;1.20;99.90
13462;DHT22;6803;45.264;5.468;2023-03-01T06:20:18;1.20;99.90
13462;DHT22;6803;45.264;5.468;2023-03-01T06:22:50;1.30;99.90
13462;DHT22;6803;45.264;5.468;2023-03-01T06:25:23;1.20;99.90
13462;DHT22;6803;45.264;5.468;2023-03-01T06:27:55;1.30;99.90
13462;DHT22;6803;45.264;5.468;2023-03-01T06:30:26;1.30;99.90
13462;DHT22;6803;45.264;5.468;2023-03-01T06:32:57;1.30;99.90
13462;DHT22;6803;45.264;5.468;2023-03-01T06:35:31;1.30;99.90
13462;DHT22;6803;45.264;5.468;2023-03-01T06:38:04;1.20;99.90
13462;DHT22;6803;45.264;5.468;2023-03-01T06:40:35;1.20;99.90
13462;DHT22;6803;45.264;5.468;2023-03-01T06:43:06;1.20;99.90
13462;DHT22;6803;45.264;5.468;2023-03-01T06:45:37;1.20;99.90
13462;DHT22;6803;45.264;5.468;2023-03-01T06:48:09;1.20;99.90
13462;DHT22;6803;45.264;5.468;2023-03-01T06:50:40;1.10;99.90
13462;DHT22;6803;45.264;5.468;2023-03-01T06:53:11;1.00;99.90
13462;DHT22;6803;45.264;5.468;2023-03-01T06:55:42;0.90;99.90
13462;DHT22;6803;45.264;5.468;2023-03-01T06:58:13;1.00;99.90
13462;DHT22;6803;45.264;5.468;2023-03-01T07:00:44;1.10;99.90
13462;DHT22;6803;45.264;5.468;2023-03-01T07:03:16;1.10;99.90
13462;DHT22;6803;45.264;5.468;2023-03-01T07:08:29;1.00;99.90
13462;DHT22;6803;45.264;5.468;2023-03-01T07:11:00;1.00;99.90
13462;DHT22;6803;45.264;5.468;2023-03-01T07:13:33;0.90;99.90
13462;DHT22;6803;45.264;5.468;2023-03-01T07:16:05;1.00;99.90
13462;DHT22;6803;45.264;5.468;2023-03-01T07:18:36;0.90;99.90
13462;DHT22;6803;45.264;5.468;2023-03-01T07:21:08;0.90;99.90
13462;DHT22;6803;45.264;5.468;2023-03-01T07:23:39;0.90;99.90
13462;DHT22;6803;45.264;5.468;2023-03-01T07:26:10;1.00;99.90
13462;DHT22;6803;45.264;5.468;2023-03-01T07:28:41;1.10;99.90
13462;DHT22;6803;45.264;5.468;2023-03-01T07:31:12;1.10;99.90
13462;DHT22;6803;45.264;5.468;2023-03-01T07:33:43;1.00;99.90
13462;DHT22;6803;45.264;5.468;2023-03-01T07:36:14;1.00;99.90
13462;DHT22;6803;45.264;5.468;2023-03-01T07:38:45;1.00;99.90
13462;DHT22;6803;45.264;5.468;2023-03-01T07:41:17;1.10;99.90
13462;DHT22;6803;45.264;5.468;2023-03-01T07:43:48;1.00;99.90
13462;DHT22;6803;45.264;5.468;2023-03-01T07:46:19;1.00;99.90
13462;DHT22;6803;45.264;5.468;2023-03-01T07:48:50;1.20;99.90
13462;DHT22;6803;45.264;5.468;2023-03-01T07:51:21;1.10;99.90
13462;DHT22;6803;45.264;5.468;2023-03-01T07:53:52;1.20;99.90
13462;DHT22;6803;45.264;5.468;2023-03-01T07:56:23;1.10;99.90
13462;DHT22;6803;45.264;5.468;2023-03-01T07:58:54;1.10;99.90
13462;DHT22;6803;45.264;5.468;2023-03-01T08:01:25;1.00;99.90
13462;DHT22;6803;45.264;5.468;2023-03-01T08:03:56;1.10;99.90
13462;DHT22;6803;45.264;5.468;2023-03-01T08:06:27;1.00;99.90
13462;DHT22;6803;45.264;5.468;2023-03-01T08:08:58;1.00;99.90
13462;DHT22;6803;45.264;5.468;2023-03-01T08:11:29;1.20;99.90
13462;DHT22;6803;45.264;5.468;2023-03-01T08:14:00;1.20;99.90
13462;DHT22;6803;45.264;5.468;2023-03-01T08:16:31;1.00;99.90
13462;DHT22;6803;45.264;5.468;2023-03-01T08:19:05;1.20;99.90
13462;DHT22;6803;45.264;5.468;2023-03-01T08:21:37;1.40;99.90
13462;DHT22;6803;45.264;5.468;2023-03-01T08:24:08;1.40;99.90
13462;DHT22;6803;45.264;5.468;2023-03-01T08:26:40;1.50;99.90
13462;DHT22;6803;45.264;5.468;2023-03-01T08:29:10;1.60;99.90
13462;DHT22;6803;45.264;5.468;2023-03-01T08:31:41;1.60;99.90
13462;DHT22;6803;45.264;5.468;2023-03-01T08:34:14;1.50;99.90
13462;DHT22;6803;45.264;5.468;2023-03-01T08:36:46;1.20;99.90
13462;DHT22;6803;45.264;5.468;2023-03-01T08:39:18;1.20;99.90
13462;DHT22;6803;45.264;5.468;2023-03-01T08:41:49;1.40;99.90
13462;DHT22;6803;45.264;5.468;2023-03-01T08:44:20;1.40;99.90
13462;DHT22;6803;45.264;5.468;2023-03-01T08:46:51;1.30;99.90
13462;DHT22;6803;45.264;5.468;2023-03-01T08:49:22;1.40;99.90
13462;DHT22;6803;45.264;5.468;2023-03-01T08:51:53;1.40;99.90
13462;DHT22;6803;45.264;5.468;2023-03-01T08:54:25;1.30;99.90
13462;DHT22;6803;45.264;5.468;2023-03-01T08:56:56;1.30;99.90
13462;DHT22;6803;45.264;5.468;2023-03-01T08:59:28;1.20;99.90
13462;DHT22;6803;45.264;5.468;2023-03-01T09:01:59;1.30;99.90
13462;DHT22;6803;45.264;5.468;2023-03-01T09:04:30;1.20;99.90
13462;DHT22;6803;45.264;5.468;2023-03-01T09:07:02;1.20;99.90
13462;DHT22;6803;45.264;5.468;2023-03-01T09:09:33;1.30;99.90
13462;DHT22;6803;45.264;5.468;2023-03-01T09:12:06;1.40;99.90
13462;DHT22;6803;45.264;5.468;2023-03-01T09:14:37;1.40;99.90
13462;DHT22;6803;45.264;5.468;2023-03-01T09:17:08;1.60;99.90
13462;DHT22;6803;45.264;5.468;2023-03-01T09:19:39;1.70;99.90
13462;DHT22;6803;45.264;5.468;2023-03-01T09:22:10;1.80;99.90
13462;DHT22;6803;45.264;5.468;2023-03-01T09:24:41;1.80;99.90
13462;DHT22;6803;45.264;5.468;2023-03-01T09:27:12;1.80;99.90
13462;DHT22;6803;45.264;5.468;2023-03-01T09:29:44;1.70;99.90
13462;DHT22;6803;45.264;5.468;2023-03-01T09:32:15;1.70;99.90
13462;DHT22;6803;45.264;5.468;2023-03-01T09:34:46;1.80;99.90
13462;DHT22;6803;45.264;5.468;2023-03-01T09:37:36;1.80;99.90
13462;DHT22;6803;45.264;5.468;2023-03-01T09:40:11;1.70;99.90
13462;DHT22;6803;45.264;5.468;2023-03-01T09:42:52;1.80;99.90
13462;DHT22;6803;45.264;5.468;2023-03-01T09:45:29;1.80;99.90
13462;DHT22;6803;45.264;5.468;2023-03-01T09:48:01;1.80;99.90
13462;DHT22;6803;45.264;5.468;2023-03-01T09:50:35;1.80;99.90
13462;DHT22;6803;45.264;5.468;2023-03-01T09:53:10;1.80;99.90
13462;DHT22;6803;45.264;5.468;2023-03-01T09:55:44;1.80;99.90
13462;DHT22;6803;45.264;5.468;2023-03-01T09:58:31;1.90;99.90
13462;DHT22;6803;45.264;5.468;2023-03-01T10:01:10;2.00;99.90
13462;DHT22;6803;45.264;5.468;2023-03-01T10:03:44;2.20;99.90
13462;DHT22;6803;45.264;5.468;2023-03-01T10:06:19;2.10;99.90
13462;DHT22;6803;45.264;5.468;2023-03-01T10:08:54;2.00;99.90
13462;DHT22;6803;45.264;5.468;2023-03-01T10:11:28;2.00;99.90
13462;DHT22;6803;45.264;5.468;2023-03-01T10:14:03;2.10;99.90
13462;DHT22;6803;45.264;5.468;2023-03-01T10:16:40;2.00;99.90
13462;DHT22;6803;45.264;5.468;2023-03-01T10:19:15;2.20;99.90
13462;DHT22;6803;45.264;5.468;2023-03-01T10:21:46;2.30;99.90
13462;DHT22;6803;45.264;5.468;2023-03-01T10:24:19;2.20;99.90
13462;DHT22;6803;45.264;5.468;2023-03-01T10:26:55;2.10;99.90
13462;DHT22;6803;45.264;5.468;2023-03-01T10:29:29;2.20;99.90
13462;DHT22;6803;45.264;5.468;2023-03-01T10:32:02;2.20;99.90
13462;DHT22;6803;45.264;5.468;2023-03-01T10:34:36;2.10;99.90
13462;DHT22;6803;45.264;5.468;2023-03-01T10:37:13;2.20;99.90
13462;DHT22;6803;45.264;5.468;2023-03-01T10:40:01;2.30;99.90
13462;DHT22;6803;45.264;5.468;2023-03-01T10:42:36;2.20;99.90
13462;DHT22;6803;45.264;5.468;2023-03-01T10:45:26;2.20;99.90
13462;DHT22;6803;45.264;5.468;2023-03-01T10:48:06;2.50;99.90
13462;DHT22;6803;45.264;5.468;2023-03-01T10:50:38;2.50;99.90
13462;DHT22;6803;45.264;5.468;2023-03-01T10:53:24;2.30;99.90
13462;DHT22;6803;45.264;5.468;2023-03-01T10:56:01;2.40;99.90
13462;DHT22;6803;45.264;5.468;2023-03-01T10:58:33;2.30;99.90
13462;DHT22;6803;45.264;5.468;2023-03-01T11:01:08;2.40;99.90
13462;DHT22;6803;45.264;5.468;2023-03-01T11:03:39;2.30;99.90
13462;DHT22;6803;45.264;5.468;2023-03-01T11:06:22;2.40;99.90
13462;DHT22;6803;45.264;5.468;2023-03-01T11:08:55;2.50;99.90
13462;DHT22;6803;45.264;5.468;2023-03-01T11:11:32;2.40;99.90
13462;DHT22;6803;45.264;5.468;2023-03-01T11:14:06;2.40;99.90
13462;DHT22;6803;45.264;5.468;2023-03-01T11:16:40;2.60;99.90
13462;DHT22;6803;45.264;5.468;2023-03-01T11:19:20;2.80;99.90
13462;DHT22;6803;45.264;5.468;2023-03-01T11:21:58;2.80;99.90
13462;DHT22;6803;45.264;5.468;2023-03-01T11:24:36;2.80;99.90
13462;DHT22;6803;45.264;5.468;2023-03-01T11:27:18;2.70;99.90
13462;DHT22;6803;45.264;5.468;2023-03-01T11:32:33;2.80;99.90
13462;DHT22;6803;45.264;5.468;2023-03-01T11:35:08;2.70;99.90
13462;DHT22;6803;45.264;5.468;2023-03-01T11:37:41;2.70;99.90
13462;DHT22;6803;45.264;5.468;2023-03-01T11:40:15;2.70;99.90
13462;DHT22;6803;45.264;5.468;2023-03-01T11:42:52;2.50;99.90
13462;DHT22;6803;45.264;5.468;2023-03-01T11:45:26;2.70;99.90
13462;DHT22;6803;45.264;5.468;2023-03-01T11:48:06;2.70;99.90
13462;DHT22;6803;45.264;5.468;2023-03-01T11:50:41;2.90;99.90
13462;DHT22;6803;45.264;5.468;2023-03-01T11:53:47;3.10;99.90
13462;DHT22;6803;45.264;5.468;2023-03-01T11:56:22;2.80;99.90
13462;DHT22;6803;45.264;5.468;2023-03-01T12:08:05;3.20;99.90
13462;DHT22;6803;45.264;5.468;2023-03-01T12:10:42;3.30;99.90
13462;DHT22;6803;45.264;5.468;2023-03-01T12:13:43;3.30;99.90
13462;DHT22;6803;45.264;5.468;2023-03-01T12:16:39;3.50;99.90
13462;DHT22;6803;45.264;5.468;2023-03-01T12:19:21;3.50;99.90
13462;DHT22;6803;45.264;5.468;2023-03-01T12:22:04;3.30;99.90
13462;DHT22;6803;45.264;5.468;2023-03-01T12:27:50;3.20;99.90
13462;DHT22;6803;45.264;5.468;2023-03-01T12:30:27;3.20;99.90
13462;DHT22;6803;45.264;5.468;2023-03-01T12:33:06;3.40;99.90
13462;DHT22;6803;45.264;5.468;2023-03-01T12:36:12;3.40;99.90
13462;DHT22;6803;45.264;5.468;2023-03-01T12:38:48;3.30;99.90
13462;DHT22;6803;45.264;5.468;2023-03-01T12:41:31;3.40;99.90
13462;DHT22;6803;45.264;5.468;2023-03-01T12:44:15;3.70;99.90
13462;DHT22;6803;45.264;5.468;2023-03-01T12:47:02;3.60;99.90
13462;DHT22;6803;45.264;5.468;2023-03-01T12:49:37;3.50;99.90
13462;DHT22;6803;45.264;5.468;2023-03-01T12:52:13;3.90;99.90
13462;DHT22;6803;45.264;5.468;2023-03-01T12:54:44;4.10;99.90
13462;DHT22;6803;45.264;5.468;2023-03-01T12:57:18;3.70;99.90
13462;DHT22;6803;45.264;5.468;2023-03-01T12:59:58;3.70;99.90
13462;DHT22;6803;45.264;5.468;2023-03-01T13:02:31;3.70;99.90
13462;DHT22;6803;45.264;5.468;2023-03-01T13:05:10;3.40;99.90
13462;DHT22;6803;45.264;5.468;2023-03-01T13:07:41;3.50;99.90
13462;DHT22;6803;45.264;5.468;2023-03-01T13:10:17;3.60;99.90
13462;DHT22;6803;45.264;5.468;2023-03-01T13:13:09;3.60;99.90
13462;DHT22;6803;45.264;5.468;2023-03-01T13:15:41;3.60;99.90
13462;DHT22;6803;45.264;5.468;2023-03-01T13:18:32;3.70;99.90
13462;DHT22;6803;45.264;5.468;2023-03-01T13:21:05;3.70;99.90
13462;DHT22;6803;45.264;5.468;2023-03-01T13:23:38;3.70;99.90
13462;DHT22;6803;45.264;5.468;2023-03-01T13:26:17;3.90;99.90
13462;DHT22;6803;45.264;5.468;2023-03-01T13:28:50;3.80;99.90
13462;DHT22;6803;45.264;5.468;2023-03-01T13:31:57;3.90;99.90
13462;DHT22;6803;45.264;5.468;2023-03-01T13:34:57;3.90;99.90
13462;DHT22;6803;45.264;5.468;2023-03-01T13:37:34;4.30;99.90
13462;DHT22;6803;45.264;5.468;2023-03-01T13:42:58;4.00;99.90
13462;DHT22;6803;45.264;5.468;2023-03-01T13:45:38;4.00;99.90
13462;DHT22;6803;45.264;5.468;2023-03-01T13:48:21;3.70;99.90
13462;DHT22;6803;45.264;5.468;2023-03-01T13:50:47;3.60;99.90
13462;DHT22;6803;45.264;5.468;2023-03-01T13:53:21;3.50;99.90
13462;DHT22;6803;45.264;5.468;2023-03-01T13:55:55;3.70;99.90
13462;DHT22;6803;45.264;5.468;2023-03-01T13:58:29;3.70;99.90
13462;DHT22;6803;45.264;5.468;2023-03-01T14:01:02;3.60;99.90
13462;DHT22;6803;45.264;5.468;2023-03-01T14:03:40;3.60;99.90
13462;DHT22;6803;45.264;5.468;2023-03-01T14:06:09;3.50;99.90
13462;DHT22;6803;45.264;5.468;2023-03-01T14:08:43;3.60;99.90
13462;DHT22;6803;45.264;5.468;2023-03-01T14:20:23;3.50;99.90
13462;DHT22;6803;45.264;5.468;2023-03-01T14:22:58;3.40;99.90
13462;DHT22;6803;45.264;5.468;2023-03-01T14:25:32;3.40;99.90
13462;DHT22;6803;45.264;5.468;2023-03-01T14:28:12;3.30;99.90
13462;DHT22;6803;45.264;5.468;2023-03-01T14:30:45;3.50;99.90
13462;DHT22;6803;45.264;5.468;2023-03-01T14:33:25;3.70;99.90
13462;DHT22;6803;45.264;5.468;2023-03-01T14:36:02;3.60;99.90
13462;DHT22;6803;45.264;5.468;2023-03-01T14:38:36;3.40;99.90
13462;DHT22;6803;45.264;5.468;2023-03-01T14:41:09;3.40;99.90
13462;DHT22;6803;45.264;5.468;2023-03-01T14:43:43;3.50;99.90
13462;DHT22;6803;45.264;5.468;2023-03-01T14:46:25;3.30;99.90
13462;DHT22;6803;45.264;5.468;2023-03-01T14:49:02;3.30;99.90
13462;DHT22;6803;45.264;5.468;2023-03-01T14:51:37;3.30;99.90
13462;DHT22;6803;45.264;5.468;2023-03-01T14:54:20;3.20;99.90
13462;DHT22;6803;45.264;5.468;2023-03-01T14:56:52;3.20;99.90
13462;DHT22;6803;45.264;5.468;2023-03-01T14:59:24;3.20;99.90
13462;DHT22;6803;45.264;5.468;2023-03-01T15:01:57;3.30;99.90
13462;DHT22;6803;45.264;5.468;2023-03-01T15:04:29;3.40;99.90
13462;DHT22;6803;45.264;5.468;2023-03-01T15:07:01;3.40;99.90
13462;DHT22;6803;45.264;5.468;2023-03-01T15:09:35;3.30;99.90
13462;DHT22;6803;45.264;5.468;2023-03-01T15:12:35;3.30;99.90
13462;DHT22;6803;45.264;5.468;2023-03-01T15:18:18;3.20;99.90
13462;DHT22;6803;45.264;5.468;2023-03-01T15:20:50;3.10;99.90
13462;DHT22;6803;45.264;5.468;2023-03-01T15:23:25;3.20;99.90
13462;DHT22;6803;45.264;5.468;2023-03-01T15:25:57;3.20;99.90
13462;DHT22;6803;45.264;5.468;2023-03-01T15:28:31;3.30;99.90
13462;DHT22;6803;45.264;5.468;2023-03-01T15:31:07;3.30;99.90
13462;DHT22;6803;45.264;5.468;2023-03-01T15:33:38;3.30;99.90
13462;DHT22;6803;45.264;5.468;2023-03-01T15:36:33;3.20;99.90
13462;DHT22;6803;45.264;5.468;2023-03-01T15:39:05;3.30;99.90
13462;DHT22;6803;45.264;5.468;2023-03-01T15:41:46;3.40;99.90
13462;DHT22;6803;45.264;5.468;2023-03-01T15:44:25;3.10;99.90
13462;DHT22;6803;45.264;5.468;2023-03-01T15:46:59;3.10;99.90
13462;DHT22;6803;45.264;5.468;2023-03-01T15:49:37;3.20;99.90
13462;DHT22;6803;45.264;5.468;2023-03-01T15:52:22;3.20;99.90
13462;DHT22;6803;45.264;5.468;2023-03-01T15:54:44;3.20;99.90
13462;DHT22;6803;45.264;5.468;2023-03-01T15:57:15;3.10;99.90
13462;DHT22;6803;45.264;5.468;2023-03-01T15:59:46;3.20;99.90
13462;DHT22;6803;45.264;5.468;2023-03-01T16:02:17;3.20;99.90
13462;DHT22;6803;45.264;5.468;2023-03-01T16:04:49;3.20;99.90
13462;DHT22;6803;45.264;5.468;2023-03-01T16:07:20;3.20;99.90
13462;DHT22;6803;45.264;5.468;2023-03-01T16:09:51;3.30;99.90
13462;DHT22;6803;45.264;5.468;2023-03-01T16:12:21;3.30;99.90
13462;DHT22;6803;45.264;5.468;2023-03-01T16:14:53;3.40;99.90
13462;DHT22;6803;45.264;5.468;2023-03-01T16:17:25;3.20;99.90
13462;DHT22;6803;45.264;5.468;2023-03-01T16:19:56;3.30;99.90
13462;DHT22;6803;45.264;5.468;2023-03-01T16:22:28;3.20;99.90
13462;DHT22;6803;45.264;5.468;2023-03-01T16:24:59;3.20;99.90
13462;DHT22;6803;45.264;5.468;2023-03-01T16:27:29;3.10;99.90
13462;DHT22;6803;45.264;5.468;2023-03-01T16:30:00;3.10;99.90
13462;DHT22;6803;45.264;5.468;2023-03-01T16:32:31;3.10;99.90
13462;DHT22;6803;45.264;5.468;2023-03-01T16:35:03;3.10;99.90
13462;DHT22;6803;45.264;5.468;2023-03-01T16:37:34;3.10;99.90
13462;DHT22;6803;45.264;5.468;2023-03-01T16:40:14;3.00;99.90
13462;DHT22;6803;45.264;5.468;2023-03-01T16:42:43;3.10;99.90
13462;DHT22;6803;45.264;5.468;2023-03-01T16:45:15;3.00;99.90
13462;DHT22;6803;45.264;5.468;2023-03-01T16:47:48;3.10;99.90
13462;DHT22;6803;45.264;5.468;2023-03-01T16:50:21;3.10;99.90
13462;DHT22;6803;45.264;5.468;2023-03-01T16:52:52;3.10;99.90
13462;DHT22;6803;45.264;5.468;2023-03-01T16:55:23;3.10;99.90
13462;DHT22;6803;45.264;5.468;2023-03-01T16:57:54;3.10;99.90
13462;DHT22;6803;45.264;5.468;2023-03-01T17:00:26;3.10;99.90
13462;DHT22;6803;45.264;5.468;2023-03-01T17:02:57;3.10;99.90
13462;DHT22;6803;45.264;5.468;2023-03-01T17:05:29;3.00;99.90
13462;DHT22;6803;45.264;5.468;2023-03-01T17:08:00;3.10;99.90
13462;DHT22;6803;45.264;5.468;2023-03-01T17:10:31;3.00;99.90
13462;DHT22;6803;45.264;5.468;2023-03-01T17:13:03;3.00;99.90
13462;DHT22;6803;45.264;5.468;2023-03-01T17:15:34;2.90;99.90
13462;DHT22;6803;45.264;5.468;2023-03-01T17:18:06;2.90;99.90
13462;DHT22;6803;45.264;5.468;2023-03-01T17:20:37;3.00;99.90
13462;DHT22;6803;45.264;5.468;2023-03-01T17:23:08;2.90;99.90
13462;DHT22;6803;45.264;5.468;2023-03-01T17:25:43;2.90;99.90